createdAt,value
2018-04-26T00:00:42.110Z,6.25
2018-04-26T00:03:10.191Z,6.22
2018-04-26T00:05:38.286Z,6.21
2018-04-26T00:08:05.819Z,6.19
2018-04-26T00:10:34.067Z,6.16
2018-04-26T00:13:02.295Z,6.12
2018-04-26T00:15:29.819Z,6.10
2018-04-26T00:17:57.398Z,6.05
2018-04-26T00:20:24.982Z,6.01
2018-04-26T00:22:53.513Z,5.99
2018-04-26T00:25:21.070Z,5.96
2018-04-26T00:27:48.607Z,5.94
2018-04-26T00:30:16.171Z,5.89
2018-04-26T00:32:44.327Z,5.87
2018-04-26T00:35:12.351Z,5.87
2018-04-26T00:37:40.451Z,5.84
2018-04-26T00:40:08.633Z,5.83
2018-04-26T00:42:38.062Z,5.81
2018-04-26T00:45:05.611Z,5.80
2018-04-26T00:47:33.551Z,5.76
2018-04-26T00:50:01.095Z,5.74
2018-04-26T00:52:28.767Z,5.72
2018-04-26T00:54:56.337Z,5.69
2018-04-26T00:57:23.904Z,5.69
2018-04-26T00:59:51.439Z,5.65
2018-04-26T01:02:19.002Z,5.64
2018-04-26T01:04:47.499Z,5.63
2018-04-26T01:07:15.023Z,5.61
2018-04-26T01:09:42.552Z,5.59
2018-04-26T01:12:10.726Z,5.57
2018-04-26T01:14:38.912Z,5.57
2018-04-26T01:17:06.448Z,5.57
2018-04-26T01:19:33.967Z,5.58
2018-04-26T01:22:01.545Z,5.58
2018-04-26T01:24:29.210Z,5.58
2018-04-26T01:26:56.812Z,5.58
2018-04-26T01:29:24.423Z,5.57
2018-04-26T01:31:51.969Z,5.55
2018-04-26T01:34:19.982Z,5.56
2018-04-26T01:37:00.039Z,5.54
2018-04-26T01:39:27.635Z,5.53
2018-04-26T01:41:56.111Z,5.53
2018-04-26T01:44:24.034Z,5.53
2018-04-26T01:46:51.562Z,5.54
2018-04-26T01:49:19.838Z,5.54
2018-04-26T01:51:47.358Z,5.55
2018-04-26T01:54:14.923Z,5.55
2018-04-26T01:56:42.474Z,5.55
2018-04-26T01:59:09.995Z,5.55
2018-04-26T02:01:37.517Z,5.57
2018-04-26T02:04:05.065Z,5.56
2018-04-26T02:06:33.252Z,5.55
2018-04-26T02:09:01.397Z,5.57
2018-04-26T02:11:29.652Z,5.55
2018-04-26T02:13:58.206Z,5.53
2018-04-26T02:16:25.739Z,5.51
2018-04-26T02:18:53.291Z,5.49
2018-04-26T02:21:20.863Z,5.50
2018-04-26T02:23:48.398Z,5.48
2018-04-26T02:26:16.115Z,5.48
2018-04-26T02:28:43.690Z,5.46
2018-04-26T02:31:11.216Z,5.45
2018-04-26T02:33:39.714Z,5.45
2018-04-26T02:36:07.927Z,5.44
2018-04-26T02:38:35.474Z,5.41
2018-04-26T02:41:04.000Z,5.41
2018-04-26T02:43:32.264Z,5.40
2018-04-26T02:45:59.834Z,5.39
2018-04-26T02:48:28.309Z,5.39
2018-04-26T02:50:56.427Z,5.38
2018-04-26T02:53:23.981Z,5.39
2018-04-26T02:55:51.515Z,5.40
2018-04-26T02:58:19.078Z,5.39
2018-04-26T03:00:46.613Z,5.40
2018-04-26T03:03:14.259Z,5.39
2018-04-26T03:05:42.427Z,5.41
2018-04-26T03:08:10.029Z,5.39
2018-04-26T03:10:37.521Z,5.35
2018-04-26T03:13:06.350Z,5.34
2018-04-26T03:15:33.878Z,5.33
2018-04-26T03:18:01.403Z,5.32
2018-04-26T03:20:29.059Z,5.31
2018-04-26T03:22:56.581Z,5.29
2018-04-26T03:25:24.130Z,5.29
2018-04-26T03:27:51.690Z,5.26
2018-04-26T03:30:19.820Z,5.24
2018-04-26T03:32:48.079Z,5.21
2018-04-26T03:35:16.123Z,5.20
2018-04-26T03:37:44.416Z,5.26
2018-04-26T03:40:12.062Z,5.44
2018-04-26T03:42:39.590Z,5.61
2018-04-26T03:45:07.484Z,5.79
2018-04-26T03:47:35.855Z,5.98
2018-04-26T03:50:03.927Z,6.14
2018-04-26T03:52:32.081Z,6.24
2018-04-26T03:54:59.677Z,6.29
2018-04-26T03:57:27.242Z,6.33
2018-04-26T04:00:06.681Z,6.34
2018-04-26T04:02:46.297Z,6.35
2018-04-26T04:05:26.246Z,6.36
2018-04-26T04:07:54.642Z,6.38
2018-04-26T04:10:22.984Z,6.41
2018-04-26T04:12:52.354Z,6.44
2018-04-26T04:15:19.881Z,6.47
2018-04-26T04:17:47.407Z,6.50
2018-04-26T04:20:15.857Z,6.55
2018-04-26T04:22:43.366Z,6.59
2018-04-26T04:25:10.954Z,6.62
2018-04-26T04:27:39.837Z,6.66
2018-04-26T04:30:07.396Z,6.69
2018-04-26T04:32:34.979Z,6.75
2018-04-26T04:35:03.071Z,6.81
2018-04-26T04:37:31.263Z,6.86
2018-04-26T04:39:59.007Z,6.93
2018-04-26T04:42:26.682Z,7.01
2018-04-26T04:44:54.843Z,7.07
2018-04-26T04:47:23.203Z,7.15
2018-04-26T04:49:51.519Z,7.24
2018-04-26T04:52:19.058Z,7.29
2018-04-26T04:54:46.629Z,7.36
2018-04-26T04:57:14.198Z,7.45
2018-04-26T04:59:41.732Z,7.48
2018-04-26T05:02:10.206Z,7.54
2018-04-26T05:04:38.234Z,7.59
2018-04-26T05:07:05.757Z,7.64
2018-04-26T05:09:33.288Z,7.71
2018-04-26T05:12:01.716Z,7.79
2018-04-26T05:14:30.194Z,7.86
2018-04-26T05:16:57.819Z,7.90
2018-04-26T05:19:25.341Z,7.98
2018-04-26T05:21:52.953Z,8.04
2018-04-26T05:24:20.522Z,8.11
2018-04-26T05:26:48.983Z,8.20
2018-04-26T05:29:16.530Z,8.30
2018-04-26T05:31:44.075Z,8.43
2018-04-26T05:34:12.497Z,8.51
2018-04-26T05:36:40.459Z,8.63
2018-04-26T05:39:08.758Z,8.76
2018-04-26T05:41:36.308Z,8.98
2018-04-26T05:44:04.503Z,9.18
2018-04-26T05:46:32.038Z,9.31
2018-04-26T05:49:00.226Z,9.41
2018-04-26T05:51:28.968Z,9.47
2018-04-26T05:53:56.486Z,9.56
2018-04-26T05:56:24.019Z,9.59
2018-04-26T05:58:51.567Z,9.62
2018-04-26T06:01:19.102Z,9.54
2018-04-26T06:03:46.762Z,9.47
2018-04-26T06:06:15.519Z,9.35
2018-04-26T06:08:44.309Z,9.29
2018-04-26T06:11:11.845Z,9.35
2018-04-26T06:13:40.338Z,9.34
2018-04-26T06:16:07.899Z,9.32
2018-04-26T06:18:35.444Z,9.36
2018-04-26T06:21:03.017Z,9.50
2018-04-26T06:23:31.138Z,9.63
2018-04-26T06:25:58.827Z,9.70
2018-04-26T06:28:26.348Z,9.65
2018-04-26T06:30:53.940Z,9.56
2018-04-26T06:33:21.466Z,9.45
2018-04-26T06:35:49.774Z,9.34
2018-04-26T06:38:17.304Z,9.33
2018-04-26T06:40:44.872Z,9.29
2018-04-26T06:43:13.288Z,9.29
2018-04-26T06:45:40.829Z,9.31
2018-04-26T06:48:09.313Z,9.36
2018-04-26T06:50:37.436Z,9.37
2018-04-26T06:53:04.991Z,9.40
2018-04-26T06:55:33.151Z,9.42
2018-04-26T06:58:00.662Z,9.44
2018-04-26T07:00:28.456Z,9.55
2018-04-26T07:02:56.193Z,9.61
2018-04-26T07:05:24.671Z,9.72
2018-04-26T07:07:52.195Z,9.87
2018-04-26T07:10:19.722Z,10.10
2018-04-26T07:12:47.977Z,10.33
2018-04-26T07:15:16.830Z,10.47
2018-04-26T07:17:44.363Z,10.65
2018-04-26T07:20:12.619Z,10.71
2018-04-26T07:22:41.062Z,10.84
2018-04-26T07:25:08.704Z,10.96
2018-04-26T07:27:36.246Z,11.14
2018-04-26T07:30:03.839Z,11.28
2018-04-26T07:32:31.365Z,11.38
2018-04-26T07:34:59.611Z,11.38
2018-04-26T07:37:28.496Z,11.39
2018-04-26T07:39:56.056Z,11.41
2018-04-26T07:42:23.575Z,11.53
2018-04-26T07:44:51.576Z,11.55
2018-04-26T07:47:19.620Z,11.46
2018-04-26T07:49:47.771Z,11.52
2018-04-26T07:52:15.310Z,11.49
2018-04-26T07:54:42.844Z,11.53
2018-04-26T07:57:10.406Z,11.67
2018-04-26T07:59:38.591Z,11.74
2018-04-26T08:02:06.125Z,11.74
2018-04-26T08:04:34.125Z,11.72
2018-04-26T08:07:02.170Z,11.65
2018-04-26T08:09:29.845Z,11.60
2018-04-26T08:11:58.623Z,11.84
2018-04-26T08:14:26.835Z,12.01
2018-04-26T08:16:54.361Z,12.08
2018-04-26T08:19:22.564Z,12.20
2018-04-26T08:21:50.094Z,12.30
2018-04-26T08:24:17.615Z,12.31
2018-04-26T08:26:45.185Z,12.28
2018-04-26T08:29:12.710Z,12.52
2018-04-26T08:31:40.246Z,12.68
2018-04-26T08:34:08.769Z,12.64
2018-04-26T08:36:37.194Z,12.54
2018-04-26T08:39:05.515Z,12.52
2018-04-26T08:41:33.059Z,12.40
2018-04-26T08:44:02.061Z,12.30
2018-04-26T08:46:29.709Z,12.47
2018-04-26T08:48:57.979Z,12.73
2018-04-26T08:51:26.546Z,12.70
2018-04-26T08:53:54.082Z,12.62
2018-04-26T08:56:21.624Z,12.75
2018-04-26T08:58:49.182Z,12.73
2018-04-26T09:01:17.396Z,12.71
2018-04-26T09:03:44.945Z,12.72
2018-04-26T09:06:13.199Z,12.76
2018-04-26T09:08:41.071Z,12.85
2018-04-26T09:11:08.711Z,12.90
2018-04-26T09:13:36.802Z,12.79
2018-04-26T09:16:05.458Z,12.71
2018-04-26T09:18:33.038Z,12.70
2018-04-26T09:21:00.569Z,12.64
2018-04-26T09:23:28.420Z,12.89
2018-04-26T09:25:55.941Z,13.07
2018-04-26T09:28:23.718Z,13.11
2018-04-26T09:30:51.299Z,13.13
2018-04-26T09:33:18.875Z,12.98
2018-04-26T09:35:47.032Z,12.83
2018-04-26T09:38:14.562Z,12.96
2018-04-26T09:40:42.236Z,13.04
2018-04-26T09:43:10.623Z,13.30
2018-04-26T09:45:38.249Z,13.30
2018-04-26T09:48:06.519Z,13.48
2018-04-26T09:50:35.275Z,13.63
2018-04-26T09:53:02.826Z,13.85
2018-04-26T09:55:30.565Z,13.86
2018-04-26T09:57:58.155Z,13.92
2018-04-26T10:00:28.833Z,13.77
2018-04-26T10:02:57.176Z,13.77
2018-04-26T10:05:31.307Z,13.76
2018-04-26T10:07:58.991Z,13.53
2018-04-26T10:10:26.622Z,13.33
2018-04-26T10:12:54.943Z,13.27
2018-04-26T10:15:22.507Z,13.19
2018-04-26T10:17:50.040Z,13.26
2018-04-26T10:20:17.616Z,13.15
2018-04-26T10:22:45.151Z,13.11
2018-04-26T10:25:12.691Z,13.22
2018-04-26T10:27:40.256Z,13.63
2018-04-26T10:30:07.791Z,13.85
2018-04-26T10:32:35.364Z,14.07
2018-04-26T10:35:03.921Z,14.20
2018-04-26T10:37:32.303Z,14.27
2018-04-26T10:42:36.768Z,14.30
2018-04-26T10:45:05.011Z,14.03
2018-04-26T10:47:33.186Z,13.83
2018-04-26T10:50:01.309Z,13.73
2018-04-26T10:52:30.613Z,13.65
2018-04-26T10:54:59.428Z,13.58
2018-04-26T10:57:27.093Z,13.51
2018-04-26T10:59:54.677Z,13.46
2018-04-26T11:02:22.210Z,13.46
2018-04-26T11:04:50.798Z,13.40
2018-04-26T11:07:18.319Z,13.47
2018-04-26T11:09:45.854Z,13.49
2018-04-26T11:12:14.099Z,13.65
2018-04-26T11:14:42.159Z,13.86
2018-04-26T11:17:09.905Z,13.95
2018-04-26T11:19:37.428Z,13.85
2018-04-26T11:22:05.032Z,13.97
2018-04-26T11:24:32.587Z,13.85
2018-04-26T11:27:00.107Z,13.70
2018-04-26T11:29:27.673Z,13.54
2018-04-26T11:31:55.244Z,13.40
2018-04-26T11:34:23.635Z,13.33
2018-04-26T11:36:51.943Z,13.41
2018-04-26T11:39:19.484Z,13.53
2018-04-26T11:41:47.892Z,13.44
2018-04-26T11:44:15.978Z,13.30
2018-04-26T11:46:43.622Z,13.19
2018-04-26T11:49:11.700Z,13.14
2018-04-26T11:51:40.103Z,13.16
2018-04-26T11:54:07.750Z,13.19
2018-04-26T11:56:35.287Z,13.26
2018-04-26T11:59:02.866Z,13.63
2018-04-26T12:01:30.435Z,13.73
2018-04-26T12:03:58.102Z,13.78
2018-04-26T12:06:26.222Z,13.72
2018-04-26T12:08:54.474Z,13.80
2018-04-26T12:11:22.626Z,14.06
2018-04-26T12:13:50.975Z,14.21
2018-04-26T12:16:20.007Z,14.28
2018-04-26T12:18:47.523Z,14.37
2018-04-26T12:21:15.086Z,14.34
2018-04-26T12:23:42.663Z,14.39
2018-04-26T12:26:10.191Z,14.46
2018-04-26T12:28:37.979Z,14.47
2018-04-26T12:31:05.514Z,14.42
2018-04-26T12:33:34.095Z,14.43
2018-04-26T12:36:02.630Z,14.42
2018-04-26T12:38:30.715Z,14.48
2018-04-26T12:40:58.707Z,14.46
2018-04-26T12:43:27.090Z,14.45
2018-04-26T12:45:54.660Z,14.47
2018-04-26T12:48:22.680Z,14.55
2018-04-26T12:50:50.710Z,14.69
2018-04-26T12:53:18.249Z,14.69
2018-04-26T12:55:45.775Z,14.58
2018-04-26T12:58:13.440Z,14.47
2018-04-26T13:00:40.992Z,14.44
2018-04-26T13:03:08.595Z,14.61
2018-04-26T13:05:37.087Z,14.90
2018-04-26T13:08:04.713Z,15.14
2018-04-26T13:10:32.246Z,15.01
2018-04-26T13:13:00.399Z,15.12
2018-04-26T13:15:28.047Z,15.10
2018-04-26T13:17:55.567Z,14.99
2018-04-26T13:20:23.273Z,14.79
2018-04-26T13:22:50.882Z,14.73
2018-04-26T13:25:18.484Z,14.65
2018-04-26T13:27:46.071Z,14.71
2018-04-26T13:30:13.611Z,14.90
2018-04-26T13:32:41.141Z,15.06
2018-04-26T13:35:09.174Z,15.08
2018-04-26T13:37:37.095Z,15.11
2018-04-26T13:40:04.751Z,15.13
2018-04-26T13:42:32.286Z,15.12
2018-04-26T13:45:00.288Z,15.07
2018-04-26T13:47:28.563Z,15.24
2018-04-26T13:49:57.044Z,15.26
2018-04-26T13:52:24.602Z,15.14
2018-04-26T13:54:52.148Z,15.29
2018-04-26T13:57:19.730Z,15.44
2018-04-26T13:59:47.279Z,15.58
2018-04-26T14:02:14.840Z,15.75
2018-04-26T14:04:43.243Z,15.86
2018-04-26T14:07:10.778Z,15.94
2018-04-26T14:09:38.469Z,15.88
2018-04-26T14:12:06.780Z,15.79
2018-04-26T14:14:34.895Z,15.84
2018-04-26T14:17:02.433Z,15.91
2018-04-26T14:19:30.111Z,16.00
2018-04-26T14:21:58.312Z,16.20
2018-04-26T14:24:25.851Z,16.22
2018-04-26T14:26:53.419Z,16.32
2018-04-26T14:29:21.159Z,16.37
2018-04-26T14:31:48.625Z,16.34
2018-04-26T14:34:16.749Z,16.32
2018-04-26T14:36:45.178Z,16.29
2018-04-26T14:39:12.707Z,16.19
2018-04-26T14:41:41.255Z,16.12
2018-04-26T14:44:09.547Z,16.08
2018-04-26T14:46:38.492Z,16.10
2018-04-26T14:49:06.727Z,16.22
2018-04-26T14:51:34.738Z,16.18
2018-04-26T14:54:02.283Z,16.25
2018-04-26T14:56:29.851Z,16.32
2018-04-26T14:58:57.562Z,16.35
2018-04-26T15:01:25.974Z,16.30
2018-04-26T15:03:53.494Z,16.25
2018-04-26T15:06:21.787Z,16.14
2018-04-26T15:08:49.320Z,16.10
2018-04-26T15:11:16.841Z,16.00
2018-04-26T15:13:44.790Z,15.73
2018-04-26T15:16:12.315Z,15.47
2018-04-26T15:18:39.842Z,15.34
2018-04-26T15:21:08.128Z,15.12
2018-04-26T15:23:35.807Z,14.86
2018-04-26T15:26:03.328Z,14.86
2018-04-26T15:28:31.233Z,14.73
2018-04-26T15:30:59.028Z,14.86
2018-04-26T15:33:26.565Z,14.91
2018-04-26T15:35:55.024Z,15.12
2018-04-26T15:38:22.589Z,15.39
2018-04-26T15:40:50.151Z,15.64
2018-04-26T15:43:18.823Z,15.63
2018-04-26T15:49:18.143Z,16.72
2018-04-26T15:51:45.683Z,16.85
2018-04-26T15:54:25.102Z,16.95
2018-04-26T15:57:04.409Z,17.25
2018-04-26T15:59:55.120Z,17.60
2018-04-26T16:03:02.677Z,17.40
2018-04-26T16:05:42.372Z,16.97
2018-04-26T16:08:28.418Z,16.72
2018-04-26T16:11:13.359Z,16.54
2018-04-26T16:13:59.014Z,16.24
2018-04-26T16:16:44.102Z,15.88
2018-04-26T16:19:34.022Z,15.94
2018-04-26T16:22:20.254Z,16.30
2018-04-26T16:24:59.562Z,16.57
2018-04-26T16:27:43.929Z,16.09
2018-04-26T16:30:23.395Z,15.53
2018-04-26T16:33:05.281Z,15.86
2018-04-26T16:35:45.397Z,15.97
2018-04-26T16:41:22.867Z,15.39
2018-04-26T16:43:51.266Z,15.05
2018-04-26T16:46:19.274Z,14.78
2018-04-26T16:48:47.183Z,14.56
2018-04-26T16:51:15.314Z,14.39
2018-04-26T16:53:42.873Z,14.20
2018-04-26T16:56:11.214Z,14.05
2018-04-26T16:58:38.779Z,13.77
2018-04-26T17:01:06.328Z,13.56
2018-04-26T17:03:33.899Z,13.42
2018-04-26T17:06:02.179Z,13.26
2018-04-26T17:08:29.754Z,13.09
2018-04-26T17:10:57.280Z,12.93
2018-04-26T17:13:25.668Z,12.79
2018-04-26T17:15:53.207Z,12.68
2018-04-26T17:18:20.723Z,12.51
2018-04-26T17:20:48.843Z,12.31
2018-04-26T17:23:16.408Z,11.96
2018-04-26T17:25:43.967Z,11.52
2018-04-26T17:28:11.612Z,11.09
2018-04-26T17:30:39.290Z,10.75
2018-04-26T17:33:07.718Z,10.46
2018-04-26T17:35:35.831Z,10.25
2018-04-26T17:38:03.355Z,10.12
2018-04-26T17:40:30.879Z,10.04
2018-04-26T17:42:59.114Z,9.96
2018-04-26T17:45:26.995Z,9.88
2018-04-26T17:47:55.325Z,9.88
2018-04-26T17:50:23.337Z,9.88
2018-04-26T17:52:51.530Z,9.91
2018-04-26T17:55:19.458Z,9.93
2018-04-26T17:57:46.989Z,9.97
2018-04-26T18:00:14.513Z,10.02
2018-04-26T18:02:42.067Z,10.04
2018-04-26T18:05:10.111Z,10.08
2018-04-26T18:07:37.659Z,10.06
2018-04-26T18:10:05.256Z,10.09
2018-04-26T18:12:33.367Z,10.09
2018-04-26T18:15:01.716Z,10.09
2018-04-26T18:17:29.290Z,10.06
2018-04-26T18:20:08.148Z,10.04
2018-04-26T18:22:25.463Z,10.07
2018-04-26T18:24:53.596Z,10.12
2018-04-26T18:27:21.117Z,10.17
2018-04-26T18:29:48.734Z,10.25
2018-04-26T18:32:16.951Z,10.32
2018-04-26T18:34:45.367Z,10.37
2018-04-26T18:37:12.897Z,10.37
2018-04-26T18:39:41.237Z,10.39
2018-04-26T18:42:08.752Z,10.38
2018-04-26T18:44:37.075Z,10.36
2018-04-26T18:47:05.582Z,10.30
2018-04-26T18:49:33.760Z,10.25
2018-04-26T18:52:01.723Z,10.21
2018-04-26T18:54:29.356Z,10.17
2018-04-26T18:56:57.014Z,10.14
2018-04-26T18:59:24.498Z,10.11
2018-04-26T19:01:52.054Z,10.08
2018-04-26T19:04:19.592Z,10.01
2018-04-26T19:06:47.646Z,9.95
2018-04-26T19:09:15.917Z,9.90
2018-04-26T19:11:43.755Z,9.86
2018-04-26T19:14:12.076Z,9.85
2018-04-26T19:16:40.214Z,9.80
2018-04-26T19:19:07.855Z,9.72
2018-04-26T19:21:35.919Z,9.67
2018-04-26T19:24:03.458Z,9.65
2018-04-26T19:26:30.993Z,9.62
2018-04-26T19:28:58.627Z,9.58
2018-04-26T19:31:26.153Z,9.54
2018-04-26T19:33:54.415Z,9.51
2018-04-26T19:36:21.941Z,9.44
2018-04-26T19:38:50.107Z,9.40
2018-04-26T19:41:17.628Z,9.39
2018-04-26T19:43:45.873Z,9.38
2018-04-26T19:46:13.806Z,9.37
2018-04-26T19:48:41.870Z,9.37
2018-04-26T19:51:10.271Z,9.34
2018-04-26T19:53:38.035Z,9.31
2018-04-26T19:56:05.570Z,9.29
2018-04-26T19:58:33.155Z,9.27
2018-04-26T20:01:00.678Z,9.24
2018-04-26T20:03:28.558Z,9.23
2018-04-26T20:05:56.675Z,9.20
2018-04-26T20:08:25.035Z,9.19
2018-04-26T20:10:52.551Z,9.16
2018-04-26T20:13:20.499Z,9.13
2018-04-26T20:15:48.108Z,9.08
2018-04-26T20:18:15.636Z,9.01
2018-04-26T20:20:43.815Z,8.97
2018-04-26T20:23:11.347Z,8.95
2018-04-26T20:25:38.919Z,8.93
2018-04-26T20:28:06.490Z,8.89
2018-04-26T20:30:34.080Z,8.84
2018-04-26T20:33:02.566Z,8.82
2018-04-26T20:35:30.100Z,8.77
2018-04-26T20:37:57.639Z,8.74
2018-04-26T20:40:25.250Z,8.70
2018-04-26T20:42:52.784Z,8.67
2018-04-26T20:45:21.247Z,8.67
2018-04-26T20:47:49.363Z,8.67
2018-04-26T20:50:17.661Z,8.65
2018-04-26T20:52:45.202Z,8.63
2018-04-26T20:55:12.726Z,8.63
2018-04-26T20:57:40.295Z,8.61
2018-04-26T21:00:07.923Z,8.60
2018-04-26T21:02:35.472Z,8.57
2018-04-26T21:05:03.682Z,8.56
2018-04-26T21:07:31.774Z,8.53
2018-04-26T21:09:59.371Z,8.53
2018-04-26T21:12:27.317Z,8.50
2018-04-26T21:14:55.373Z,8.47
2018-04-26T21:17:22.893Z,8.45
2018-04-26T21:19:51.196Z,8.43
2018-04-26T21:22:19.575Z,8.42
2018-04-26T21:24:47.092Z,8.40
2018-04-26T21:27:14.614Z,8.39
2018-04-26T21:29:42.607Z,8.37
2018-04-26T21:32:10.959Z,8.38
2018-04-26T21:34:38.579Z,8.37
2018-04-26T21:37:06.109Z,8.40
2018-04-26T21:39:34.362Z,8.41
2018-04-26T21:42:01.917Z,8.39
2018-04-26T21:44:30.283Z,8.36
2018-04-26T21:46:58.378Z,8.34
2018-04-26T21:49:26.037Z,8.31
2018-04-26T21:51:59.225Z,8.28
2018-04-26T21:54:32.211Z,8.25
2018-04-26T21:57:05.371Z,8.24
2018-04-26T21:59:38.510Z,8.21
2018-04-26T22:02:12.590Z,8.20
2018-04-26T22:04:46.471Z,8.20
2018-04-26T22:07:14.015Z,8.18
2018-04-26T22:09:41.550Z,8.17
2018-04-26T22:12:09.795Z,8.17
2018-04-26T22:14:38.169Z,8.20
2018-04-26T22:17:05.716Z,8.23
2018-04-26T22:19:34.327Z,8.25
2018-04-26T22:22:01.888Z,8.30
2018-04-26T22:24:30.288Z,8.30
2018-04-26T22:26:57.955Z,8.34
2018-04-26T22:29:25.518Z,8.38
2018-04-26T22:31:53.118Z,8.39
2018-04-26T22:34:21.754Z,8.38
2018-04-26T22:36:49.288Z,8.35
2018-04-26T22:39:16.818Z,8.35
2018-04-26T22:41:45.215Z,8.31
2018-04-26T22:44:13.239Z,8.31
2018-04-26T22:46:40.776Z,8.35
2018-04-26T22:49:08.762Z,8.39
2018-04-26T22:51:36.941Z,8.44
2018-04-26T22:54:04.466Z,8.48
2018-04-26T22:56:31.982Z,8.51
2018-04-26T22:58:59.666Z,8.54
2018-04-26T23:01:27.312Z,8.56
2018-04-26T23:03:55.614Z,8.58
2018-04-26T23:06:23.784Z,8.57
2018-04-26T23:08:51.967Z,8.56
2018-04-26T23:11:20.033Z,8.57
2018-04-26T23:13:48.622Z,8.57
2018-04-26T23:16:16.144Z,8.59
2018-04-26T23:18:43.666Z,8.62
2018-04-26T23:21:11.876Z,8.63
2018-04-26T23:23:39.454Z,8.62
2018-04-26T23:26:06.986Z,8.61
2018-04-26T23:28:34.551Z,8.61
2018-04-26T23:31:02.074Z,8.61
2018-04-26T23:33:30.279Z,8.62
2018-04-26T23:35:57.914Z,8.63
2018-04-26T23:38:25.432Z,8.62
2018-04-26T23:40:53.641Z,8.61
2018-04-26T23:43:21.974Z,8.62
2018-04-26T23:45:49.502Z,8.63
2018-04-26T23:48:17.684Z,8.63
2018-04-26T23:50:45.939Z,8.63
2018-04-26T23:53:13.460Z,8.63
2018-04-26T23:55:40.999Z,8.62
2018-04-26T23:58:08.579Z,8.63
